createdAt,value
2018-05-21T00:01:51.242Z,9.47
2018-05-21T00:04:19.061Z,9.80
2018-05-21T00:06:46.045Z,6.73
2018-05-21T00:09:13.801Z,7.70
2018-05-21T00:11:40.835Z,7.43
2018-05-21T00:14:08.101Z,6.80
2018-05-21T00:16:35.125Z,8.17
2018-05-21T00:19:02.116Z,8.07
2018-05-21T00:21:29.120Z,7.40
2018-05-21T00:23:56.136Z,8.33
2018-05-21T00:26:23.169Z,9.40
2018-05-21T00:28:50.901Z,8.27
2018-05-21T00:31:17.909Z,8.20
2018-05-21T00:33:44.976Z,8.30
2018-05-21T00:36:11.991Z,8.07
2018-05-21T00:38:39.008Z,7.70
2018-05-21T00:41:06.764Z,9.07
2018-05-21T00:43:34.571Z,10.43
2018-05-21T00:46:01.592Z,8.20
2018-05-21T00:48:29.344Z,8.90
2018-05-21T00:50:57.107Z,7.73
2018-05-21T00:53:24.196Z,9.03
2018-05-21T00:55:51.185Z,8.50
2018-05-21T00:58:18.208Z,9.53
2018-05-21T01:00:45.216Z,7.93
2018-05-21T01:03:13.001Z,10.03
2018-05-21T01:05:40.024Z,9.37
2018-05-21T01:08:07.780Z,7.87
2018-05-21T01:10:34.831Z,11.30
2018-05-21T01:13:02.701Z,9.13
2018-05-21T01:15:29.725Z,8.50
2018-05-21T01:17:56.725Z,9.30
2018-05-21T01:20:23.735Z,8.90
2018-05-21T01:22:50.828Z,10.40
2018-05-21T01:25:17.845Z,9.87
2018-05-21T01:27:45.568Z,8.23
2018-05-21T01:30:12.566Z,8.20
2018-05-21T01:32:39.632Z,9.77
2018-05-21T01:35:06.661Z,9.27
2018-05-21T01:37:33.640Z,9.80
2018-05-21T01:40:00.669Z,9.30
2018-05-21T01:42:27.799Z,9.33
2018-05-21T01:44:54.821Z,9.17
2018-05-21T01:47:22.561Z,9.83
2018-05-21T01:49:49.571Z,9.27
2018-05-21T01:52:16.609Z,10.33
2018-05-21T01:54:43.633Z,9.50
2018-05-21T01:57:10.668Z,9.27
2018-05-21T01:59:38.412Z,9.17
2018-05-21T02:02:05.415Z,9.77
2018-05-21T02:04:32.439Z,9.30
2018-05-21T02:07:00.176Z,9.63
2018-05-21T02:09:27.219Z,9.13
2018-05-21T02:11:54.987Z,10.33
2018-05-21T02:14:22.181Z,8.87
2018-05-21T02:16:49.204Z,10.67
2018-05-21T02:19:16.189Z,10.50
2018-05-21T02:21:43.221Z,9.33
2018-05-21T02:24:10.296Z,10.10
2018-05-21T02:26:37.320Z,9.50
2018-05-21T02:29:04.372Z,9.80
2018-05-21T02:31:31.385Z,10.00
2018-05-21T02:33:58.479Z,10.07
2018-05-21T02:36:25.469Z,9.37
2018-05-21T02:38:53.268Z,10.03
2018-05-21T02:41:20.285Z,9.97
2018-05-21T02:43:47.391Z,10.83
2018-05-21T02:46:14.442Z,11.77
2018-05-21T02:48:41.456Z,9.47
2018-05-21T02:51:08.488Z,10.43
2018-05-21T02:53:36.281Z,9.53
2018-05-21T02:56:03.516Z,9.13
2018-05-21T02:58:30.617Z,10.10
2018-05-21T03:00:57.637Z,11.47
2018-05-21T03:03:24.677Z,9.80
2018-05-21T03:05:51.691Z,9.80
2018-05-21T03:08:19.456Z,10.97
2018-05-21T03:10:47.213Z,10.90
2018-05-21T03:13:14.297Z,11.13
2018-05-21T03:15:41.329Z,9.83
2018-05-21T03:18:09.052Z,11.23
2018-05-21T03:20:36.120Z,11.20
2018-05-21T03:23:03.923Z,11.23
2018-05-21T03:25:30.922Z,10.87
2018-05-21T03:27:58.674Z,11.43
2018-05-21T03:30:25.636Z,11.67
2018-05-21T03:32:53.473Z,11.00
2018-05-21T03:35:20.503Z,12.00
2018-05-21T03:37:47.504Z,10.40
2018-05-21T03:40:15.264Z,10.03
2018-05-21T03:42:43.073Z,12.90
2018-05-21T03:45:10.216Z,10.90
2018-05-21T03:47:37.221Z,11.23
2018-05-21T03:50:04.228Z,14.03
2018-05-21T03:52:31.368Z,11.60
2018-05-21T03:54:58.427Z,10.63
2018-05-21T03:57:25.460Z,11.03
2018-05-21T04:00:11.019Z,11.17
2018-05-21T04:02:56.536Z,11.57
2018-05-21T04:05:23.592Z,11.07
2018-05-21T04:07:50.615Z,10.57
2018-05-21T04:10:17.619Z,11.23
2018-05-21T04:12:44.703Z,11.10
2018-05-21T04:15:11.746Z,10.93
2018-05-21T04:17:38.750Z,10.30
2018-05-21T04:20:06.502Z,11.07
2018-05-21T04:22:34.336Z,10.40
2018-05-21T04:25:01.357Z,10.57
2018-05-21T04:27:28.379Z,10.47
2018-05-21T04:29:56.187Z,9.70
2018-05-21T04:32:23.229Z,9.07
2018-05-21T04:34:50.273Z,9.03
2018-05-21T04:37:17.308Z,8.73
2018-05-21T04:39:44.323Z,10.07
2018-05-21T04:42:11.312Z,9.97
2018-05-21T04:44:38.384Z,8.90
2018-05-21T04:47:05.413Z,9.60
2018-05-21T04:49:32.405Z,8.63
2018-05-21T04:51:59.427Z,8.77
2018-05-21T04:54:26.528Z,11.13
2018-05-21T04:56:53.547Z,8.13
2018-05-21T04:59:20.559Z,8.30
2018-05-21T05:01:47.609Z,9.07
2018-05-21T05:04:14.657Z,8.67
2018-05-21T05:06:41.699Z,8.10
2018-05-21T05:09:08.684Z,8.83
2018-05-21T05:11:35.784Z,7.33
2018-05-21T05:14:03.243Z,10.73
2018-05-21T05:16:30.456Z,8.47
2018-05-21T05:18:58.184Z,8.00
2018-05-21T05:21:26.197Z,9.40
2018-05-21T05:23:53.585Z,8.90
2018-05-21T05:26:20.981Z,8.57
2018-05-21T05:28:48.758Z,7.93
2018-05-21T05:31:16.104Z,8.70
2018-05-21T05:33:43.350Z,8.67
2018-05-21T05:36:11.137Z,7.77
2018-05-21T05:38:38.955Z,7.73
2018-05-21T05:41:06.705Z,7.93
2018-05-21T05:43:33.774Z,7.67
2018-05-21T05:46:01.285Z,7.50
2018-05-21T05:48:29.305Z,8.77
2018-05-21T05:50:56.576Z,7.70
2018-05-21T05:53:23.854Z,7.50
2018-05-21T05:55:51.062Z,7.63
2018-05-21T05:58:18.222Z,8.20
2018-05-21T06:00:45.296Z,7.33
2018-05-21T06:03:13.109Z,8.10
2018-05-21T06:05:40.141Z,6.40
2018-05-21T06:08:07.157Z,7.00
2018-05-21T06:10:34.179Z,7.73
2018-05-21T06:13:01.334Z,8.00
2018-05-21T06:15:28.472Z,14.07
2018-05-21T06:17:55.482Z,7.37
2018-05-21T06:20:22.536Z,6.77
2018-05-21T06:22:49.604Z,7.80
2018-05-21T06:25:16.645Z,7.73
2018-05-21T06:27:43.676Z,7.33
2018-05-21T06:30:11.008Z,6.40
2018-05-21T06:32:38.089Z,6.33
2018-05-21T06:35:05.119Z,6.67
2018-05-21T06:37:32.120Z,5.87
2018-05-21T06:39:59.916Z,8.30
2018-05-21T06:42:27.889Z,12.43
2018-05-21T06:44:54.949Z,6.20
2018-05-21T06:47:21.987Z,6.37
2018-05-21T06:49:49.000Z,5.70
2018-05-21T06:52:16.319Z,6.40
2018-05-21T06:54:43.408Z,6.40
2018-05-21T06:57:11.415Z,4.87
2018-05-21T06:59:38.600Z,6.20
2018-05-21T07:02:05.609Z,5.37
2018-05-21T07:04:32.700Z,5.77
2018-05-21T07:06:59.876Z,6.80
2018-05-21T07:09:27.663Z,4.77
2018-05-21T07:11:54.710Z,5.23
2018-05-21T07:14:21.821Z,5.57
2018-05-21T07:16:48.839Z,5.60
2018-05-21T07:19:15.853Z,5.60
2018-05-21T07:21:43.180Z,5.30
2018-05-21T07:24:10.292Z,5.50
2018-05-21T07:26:37.341Z,5.73
2018-05-21T07:29:04.630Z,5.63
2018-05-21T07:31:31.759Z,6.27
2018-05-21T07:33:58.797Z,5.67
2018-05-21T07:36:25.841Z,6.17
2018-05-21T07:38:53.110Z,5.87
2018-05-21T07:41:20.131Z,5.67
2018-05-21T07:43:47.168Z,6.03
2018-05-21T07:46:14.205Z,6.40
2018-05-21T07:48:41.369Z,6.40
2018-05-21T07:51:08.499Z,7.10
2018-05-21T07:53:35.641Z,7.30
2018-05-21T07:56:03.420Z,7.00
2018-05-21T07:58:30.455Z,6.60
2018-05-21T08:00:57.477Z,11.93
2018-05-21T08:03:25.446Z,7.50
2018-05-21T08:05:53.209Z,5.97
2018-05-21T08:08:20.265Z,6.00
2018-05-21T08:10:47.515Z,5.97
2018-05-21T08:13:14.615Z,5.93
2018-05-21T08:15:41.680Z,5.10
2018-05-21T08:18:08.760Z,5.63
2018-05-21T08:20:36.536Z,5.40
2018-05-21T08:23:03.636Z,5.57
2018-05-21T08:25:30.633Z,7.27
2018-05-21T08:27:57.664Z,5.20
2018-05-21T08:30:25.445Z,5.67
2018-05-21T08:32:52.535Z,6.50
2018-05-21T08:35:19.840Z,8.90
2018-05-21T08:37:47.776Z,6.47
2018-05-21T08:40:14.830Z,5.90
2018-05-21T08:42:41.960Z,7.07
2018-05-21T08:45:09.313Z,6.77
2018-05-21T08:47:36.401Z,7.03
2018-05-21T08:50:04.178Z,6.00
2018-05-21T08:52:31.996Z,5.63
2018-05-21T08:54:58.993Z,5.70
2018-05-21T08:57:25.990Z,6.07
2018-05-21T08:59:53.085Z,6.87
2018-05-21T09:02:20.164Z,6.77
2018-05-21T09:04:47.253Z,6.33
2018-05-21T09:07:14.430Z,8.60
2018-05-21T09:09:41.467Z,7.93
2018-05-21T09:12:09.281Z,6.50
2018-05-21T09:14:36.441Z,7.17
2018-05-21T09:17:03.617Z,6.60
2018-05-21T09:19:31.545Z,7.10
2018-05-21T09:21:58.598Z,6.80
2018-05-21T09:24:25.645Z,6.33
2018-05-21T09:26:52.653Z,6.73
2018-05-21T09:29:22.557Z,6.50
2018-05-21T09:31:49.597Z,7.30
2018-05-21T09:34:17.560Z,7.03
2018-05-21T09:36:44.655Z,6.57
2018-05-21T09:39:11.740Z,7.00
2018-05-21T09:41:38.779Z,6.07
2018-05-21T09:44:06.804Z,5.47
2018-05-21T09:46:33.864Z,7.47
2018-05-21T09:49:01.015Z,6.10
2018-05-21T09:51:28.012Z,7.10
2018-05-21T09:53:55.196Z,6.57
2018-05-21T09:56:22.913Z,7.03
2018-05-21T09:58:49.955Z,6.77
2018-05-21T10:01:16.973Z,7.03
2018-05-21T10:03:44.165Z,6.23
2018-05-21T10:06:11.964Z,8.27
2018-05-21T10:08:39.008Z,7.93
2018-05-21T10:11:06.764Z,6.73
2018-05-21T10:13:34.693Z,6.00
2018-05-21T10:16:02.530Z,6.70
2018-05-21T10:18:29.564Z,7.10
2018-05-21T10:20:56.589Z,7.17
2018-05-21T10:23:23.905Z,6.73
2018-05-21T10:25:50.973Z,8.00
2018-05-21T10:28:17.980Z,8.30
2018-05-21T10:30:45.039Z,7.33
2018-05-21T10:33:12.097Z,6.90
2018-05-21T10:35:39.113Z,9.10
2018-05-21T10:38:06.424Z,6.67
2018-05-21T10:40:33.651Z,7.47
2018-05-21T10:43:00.744Z,6.80
2018-05-21T10:45:27.804Z,6.97
2018-05-21T10:47:54.804Z,7.47
2018-05-21T10:50:21.866Z,10.17
2018-05-21T10:52:49.166Z,20.90
2018-05-21T10:55:16.200Z,8.03
2018-05-21T10:57:43.344Z,7.53
2018-05-21T11:00:10.291Z,6.20
2018-05-21T11:02:37.565Z,8.47
2018-05-21T11:05:04.601Z,8.83
2018-05-21T11:07:32.550Z,9.50
2018-05-21T11:09:59.793Z,7.30
2018-05-21T11:12:26.971Z,6.60
2018-05-21T11:14:54.876Z,5.80
2018-05-21T11:17:22.049Z,6.10
2018-05-21T11:19:49.109Z,5.80
2018-05-21T11:22:16.875Z,6.23
2018-05-21T11:24:44.671Z,5.80
2018-05-21T11:27:11.670Z,8.00
2018-05-21T11:29:39.664Z,7.47
2018-05-21T11:32:06.759Z,7.83
2018-05-21T11:34:34.880Z,6.67
2018-05-21T11:37:02.456Z,6.83
2018-05-21T11:39:30.211Z,8.10
2018-05-21T11:41:57.247Z,5.80
2018-05-21T11:44:25.059Z,6.17
2018-05-21T11:46:52.249Z,5.97
2018-05-21T11:49:19.248Z,5.50
2018-05-21T11:51:46.258Z,7.00
2018-05-21T11:54:14.084Z,5.57
2018-05-21T11:56:41.108Z,6.00
2018-05-21T11:59:08.868Z,7.50
2018-05-21T12:01:36.705Z,5.70
2018-05-21T12:04:03.815Z,5.00
2018-05-21T12:06:30.851Z,5.70
2018-05-21T12:08:57.840Z,5.70
2018-05-21T12:11:25.669Z,5.27
2018-05-21T12:13:53.956Z,5.10
2018-05-21T12:16:21.115Z,5.87
2018-05-21T12:18:49.025Z,5.70
2018-05-21T12:21:16.273Z,5.50
2018-05-21T12:23:43.490Z,5.93
2018-05-21T12:26:10.623Z,5.33
2018-05-21T12:28:38.997Z,6.37
2018-05-21T12:31:10.107Z,6.43
2018-05-21T12:33:38.086Z,5.50
2018-05-21T12:36:07.694Z,6.23
2018-05-21T12:38:35.516Z,5.83
2018-05-21T12:41:07.347Z,6.20
2018-05-21T12:43:34.584Z,5.73
2018-05-21T12:46:02.474Z,5.83
2018-05-21T12:48:29.702Z,9.87
2018-05-21T12:50:59.862Z,8.57
2018-05-21T12:53:27.290Z,6.70
2018-05-21T12:55:54.442Z,5.53
2018-05-21T12:58:21.604Z,6.13
2018-05-21T13:00:49.469Z,6.10
2018-05-21T13:03:17.401Z,6.63
2018-05-21T13:05:44.494Z,5.37
2018-05-21T13:08:12.532Z,5.40
2018-05-21T13:10:40.531Z,5.87
2018-05-21T13:13:08.380Z,5.00
2018-05-21T13:15:35.397Z,5.83
2018-05-21T13:18:03.152Z,5.87
2018-05-21T13:20:30.896Z,9.73
2018-05-21T13:22:57.988Z,5.10
2018-05-21T13:25:25.027Z,6.30
2018-05-21T13:27:52.044Z,5.27
2018-05-21T13:30:19.801Z,5.03
2018-05-21T13:32:47.608Z,6.00
2018-05-21T13:35:14.644Z,6.03
2018-05-21T13:37:42.372Z,5.63
2018-05-21T13:40:10.184Z,5.83
2018-05-21T13:42:37.234Z,4.57
2018-05-21T13:45:04.281Z,5.77
2018-05-21T13:47:31.301Z,5.23
2018-05-21T13:49:58.348Z,5.37
2018-05-21T13:52:25.548Z,8.17
2018-05-21T13:54:52.520Z,6.50
2018-05-21T13:57:20.280Z,4.57
2018-05-21T13:59:48.099Z,5.73
2018-05-21T14:02:15.345Z,6.13
2018-05-21T14:04:42.352Z,5.63
2018-05-21T14:07:10.112Z,5.50
2018-05-21T14:09:37.971Z,11.70
2018-05-21T14:12:05.012Z,5.80
2018-05-21T14:14:32.124Z,5.93
2018-05-21T14:16:59.193Z,6.17
2018-05-21T14:19:26.213Z,5.77
2018-05-21T14:21:53.224Z,8.23
2018-05-21T14:24:21.028Z,5.50
2018-05-21T14:26:48.068Z,6.43
2018-05-21T14:29:15.056Z,6.37
2018-05-21T14:31:42.084Z,6.03
2018-05-21T14:34:09.175Z,6.27
2018-05-21T14:36:36.344Z,5.53
2018-05-21T14:39:04.953Z,5.90
2018-05-21T14:41:32.364Z,5.93
2018-05-21T14:43:59.456Z,7.70
2018-05-21T14:46:26.468Z,6.70
2018-05-21T14:48:54.010Z,6.07
2018-05-21T14:51:21.816Z,5.80
2018-05-21T14:53:48.876Z,5.60
2018-05-21T14:56:15.900Z,6.43
2018-05-21T14:58:42.904Z,7.40
2018-05-21T15:01:10.505Z,6.60
2018-05-21T15:03:38.012Z,6.23
2018-05-21T15:06:05.008Z,5.43
2018-05-21T15:08:32.045Z,6.50
2018-05-21T15:10:59.176Z,5.87
2018-05-21T15:13:26.268Z,6.63
2018-05-21T15:15:53.305Z,6.50
2018-05-21T15:18:20.324Z,7.73
2018-05-21T15:20:48.512Z,6.60
2018-05-21T15:23:15.716Z,6.23
2018-05-21T15:25:43.017Z,5.63
2018-05-21T15:28:10.871Z,6.40
2018-05-21T15:30:37.895Z,7.37
2018-05-21T15:33:05.722Z,8.07
2018-05-21T15:35:32.729Z,6.33
2018-05-21T15:38:00.508Z,8.07
2018-05-21T15:40:28.288Z,8.00
2018-05-21T15:42:55.337Z,8.43
2018-05-21T15:45:22.304Z,8.93
2018-05-21T15:47:49.311Z,8.40
2018-05-21T15:50:16.320Z,8.87
2018-05-21T15:52:43.447Z,8.33
2018-05-21T15:55:10.512Z,7.57
2018-05-21T15:57:37.970Z,8.33
2018-05-21T16:00:05.017Z,7.00
2018-05-21T16:02:32.160Z,9.20
2018-05-21T16:04:59.188Z,13.33
2018-05-21T16:07:26.238Z,8.10
2018-05-21T16:09:53.957Z,9.13
2018-05-21T16:12:21.892Z,7.37
2018-05-21T16:14:48.893Z,7.63
2018-05-21T16:17:16.636Z,7.87
2018-05-21T16:19:43.640Z,7.57
2018-05-21T16:22:10.687Z,7.43
2018-05-21T16:24:37.725Z,8.70
2018-05-21T16:27:04.744Z,8.33
2018-05-21T16:29:31.779Z,8.33
2018-05-21T16:31:59.536Z,8.80
2018-05-21T16:34:27.643Z,7.77
2018-05-21T16:36:55.469Z,7.20
2018-05-21T16:39:23.240Z,8.00
2018-05-21T16:41:50.436Z,7.73
2018-05-21T16:44:17.745Z,7.70
2018-05-21T16:46:44.820Z,7.00
2018-05-21T16:49:11.896Z,6.27
2018-05-21T16:51:38.937Z,8.50
2018-05-21T16:54:06.008Z,7.53
2018-05-21T16:56:33.826Z,7.20
2018-05-21T16:59:00.824Z,6.77
2018-05-21T17:01:27.973Z,6.57
2018-05-21T17:03:55.106Z,6.30
2018-05-21T17:06:22.144Z,7.40
2018-05-21T17:08:49.147Z,7.37
2018-05-21T17:11:16.229Z,7.63
2018-05-21T17:13:43.610Z,7.80
2018-05-21T17:16:10.633Z,6.83
2018-05-21T17:18:37.663Z,7.13
2018-05-21T17:21:04.684Z,6.43
2018-05-21T17:23:32.484Z,7.37
2018-05-21T17:25:59.495Z,6.80
2018-05-21T17:28:26.530Z,6.93
2018-05-21T17:30:54.308Z,5.60
2018-05-21T17:33:21.389Z,7.30
2018-05-21T17:35:48.469Z,6.70
2018-05-21T17:38:22.524Z,7.13
2018-05-21T17:40:50.300Z,5.97
2018-05-21T17:43:18.120Z,6.50
2018-05-21T17:45:45.136Z,7.23
2018-05-21T17:48:12.129Z,6.00
2018-05-21T17:50:39.176Z,5.87
2018-05-21T17:53:07.253Z,5.20
2018-05-21T17:55:35.117Z,6.20
2018-05-21T17:58:02.895Z,5.90
2018-05-21T18:00:30.124Z,5.90
2018-05-21T18:02:57.224Z,6.47
2018-05-21T18:05:24.223Z,5.83
2018-05-21T18:07:51.250Z,9.27
2018-05-21T18:10:18.292Z,6.60
2018-05-21T18:12:45.627Z,10.30
2018-05-21T18:15:13.011Z,7.33
2018-05-21T18:17:40.016Z,7.20
2018-05-21T18:20:07.057Z,7.03
2018-05-21T18:22:34.141Z,10.73
2018-05-21T18:25:01.176Z,7.43
2018-05-21T18:27:28.349Z,7.53
2018-05-21T18:29:55.405Z,6.33
2018-05-21T18:32:23.191Z,7.40
2018-05-21T18:34:50.180Z,6.50
2018-05-21T18:37:17.337Z,7.40
2018-05-21T18:39:44.362Z,7.83
2018-05-21T18:42:11.514Z,7.33
2018-05-21T18:44:38.578Z,7.77
2018-05-21T18:47:05.658Z,7.63
2018-05-21T18:49:33.231Z,8.40
2018-05-21T18:52:00.252Z,9.13
2018-05-21T18:54:27.273Z,7.83
2018-05-21T18:56:54.292Z,11.43
2018-05-21T18:59:21.309Z,7.70
2018-05-21T19:01:48.306Z,8.33
2018-05-21T19:04:16.441Z,7.63
2018-05-21T19:06:44.184Z,8.57
2018-05-21T19:09:11.209Z,8.50
2018-05-21T19:11:38.210Z,8.10
2018-05-21T19:14:05.343Z,7.27
2018-05-21T19:16:33.195Z,8.00
2018-05-21T19:19:00.192Z,7.87
2018-05-21T19:21:27.222Z,8.80
2018-05-21T19:23:54.296Z,9.00
2018-05-21T19:26:21.333Z,7.97
2018-05-21T19:28:48.344Z,7.20
2018-05-21T19:31:15.338Z,9.87
2018-05-21T19:33:43.128Z,8.03
2018-05-21T19:36:10.969Z,8.53
2018-05-21T19:38:38.106Z,8.57
2018-05-21T19:41:05.093Z,9.30
2018-05-21T19:43:32.212Z,9.33
2018-05-21T19:45:59.311Z,8.47
2018-05-21T19:48:27.060Z,8.93
2018-05-21T19:50:54.151Z,9.80
2018-05-21T19:53:21.228Z,11.00
2018-05-21T19:55:48.224Z,8.47
2018-05-21T19:58:15.279Z,9.43
2018-05-21T20:00:43.018Z,10.50
2018-05-21T20:03:10.040Z,8.97
2018-05-21T20:05:37.072Z,8.60
2018-05-21T20:08:04.126Z,8.10
2018-05-21T20:10:31.128Z,8.83
2018-05-21T20:12:58.208Z,8.40
2018-05-21T20:15:25.216Z,9.23
2018-05-21T20:17:52.510Z,9.70
2018-05-21T20:20:38.159Z,9.80
2018-05-21T20:23:06.228Z,9.30
2018-05-21T20:25:33.232Z,11.23
2018-05-21T20:28:00.248Z,9.40
2018-05-21T20:30:27.634Z,9.87
2018-05-21T20:32:55.038Z,10.33
2018-05-21T20:35:22.804Z,8.73
2018-05-21T20:37:49.896Z,8.80
2018-05-21T20:40:16.888Z,9.40
2018-05-21T20:42:44.084Z,10.77
2018-05-21T20:45:11.127Z,8.97
2018-05-21T20:47:38.104Z,8.40
2018-05-21T20:50:05.163Z,7.93
2018-05-21T20:52:32.273Z,11.83
2018-05-21T20:54:59.992Z,8.80
2018-05-21T20:57:27.752Z,8.93
2018-05-21T20:59:54.764Z,8.87
2018-05-21T21:02:21.788Z,9.03
2018-05-21T21:04:48.780Z,7.73
2018-05-21T21:07:15.772Z,9.30
2018-05-21T21:09:42.776Z,12.60
2018-05-21T21:12:09.781Z,8.13
2018-05-21T21:14:36.844Z,8.00
2018-05-21T21:17:03.863Z,6.90
2018-05-21T21:19:30.860Z,8.43
2018-05-21T21:21:57.868Z,7.17
2018-05-21T21:24:25.009Z,8.23
2018-05-21T21:26:52.784Z,8.83
2018-05-21T21:29:19.772Z,8.13
2018-05-21T21:31:46.768Z,7.97
2018-05-21T21:34:14.540Z,8.80
2018-05-21T21:36:41.539Z,8.73
2018-05-21T21:39:09.319Z,8.43
2018-05-21T21:41:37.056Z,7.00
2018-05-21T21:44:04.192Z,7.83
2018-05-21T21:46:31.228Z,9.00
2018-05-21T21:48:59.335Z,7.90
2018-05-21T21:51:26.336Z,8.77
2018-05-21T21:53:53.368Z,7.30
2018-05-21T21:56:20.384Z,7.23
2018-05-21T21:58:48.125Z,7.90
2018-05-21T22:01:15.105Z,8.57
2018-05-21T22:03:42.179Z,7.83
2018-05-21T22:06:09.897Z,7.43
2018-05-21T22:08:36.924Z,7.53
2018-05-21T22:11:03.968Z,8.60
2018-05-21T22:13:31.068Z,8.47
2018-05-21T22:15:58.813Z,7.93
2018-05-21T22:18:26.556Z,8.30
2018-05-21T22:20:53.566Z,8.17
2018-05-21T22:23:20.601Z,8.57
2018-05-21T22:25:47.676Z,9.50
2018-05-21T22:28:14.709Z,10.50
2018-05-21T22:30:41.700Z,7.97
2018-05-21T22:33:08.832Z,8.23
2018-05-21T22:35:35.827Z,7.73
2018-05-21T22:38:02.895Z,8.23
2018-05-21T22:40:29.913Z,7.50
2018-05-21T22:42:58.424Z,9.40
2018-05-21T22:45:26.147Z,6.90
2018-05-21T22:47:53.880Z,7.07
2018-05-21T22:50:20.959Z,7.57
2018-05-21T22:52:47.936Z,10.40
2018-05-21T22:55:14.959Z,8.20
2018-05-21T22:57:42.692Z,7.70
2018-05-21T23:00:09.821Z,8.60
2018-05-21T23:02:36.852Z,7.33
2018-05-21T23:05:03.849Z,7.50
2018-05-21T23:07:30.856Z,7.47
2018-05-21T23:09:57.837Z,7.13
2018-05-21T23:12:24.800Z,7.83
2018-05-21T23:14:52.644Z,7.47
2018-05-21T23:17:19.620Z,7.37
2018-05-21T23:19:47.360Z,7.73
2018-05-21T23:22:14.335Z,6.77
2018-05-21T23:24:41.388Z,8.20
2018-05-21T23:27:08.401Z,6.70
2018-05-21T23:29:35.396Z,7.70
2018-05-21T23:32:02.405Z,6.70
2018-05-21T23:34:30.203Z,7.20
2018-05-21T23:36:57.201Z,7.60
2018-05-21T23:39:24.186Z,7.73
2018-05-21T23:41:51.180Z,7.87
2018-05-21T23:44:18.329Z,8.33
2018-05-21T23:46:45.324Z,7.47
2018-05-21T23:49:13.060Z,7.17
2018-05-21T23:51:40.060Z,7.50
2018-05-21T23:54:07.092Z,7.17
2018-05-21T23:56:34.288Z,7.93
2018-05-21T23:59:01.271Z,7.20
